Time;durP1;ratioP1;P1;durP2;ratioP2;P2;SDS_P1;SDS_P2;PMS_P1;PMS_P2;Temp;Humidity;BMP_temperature;BMP_pressure;BME280_temperature;BME280_humidity;BME280_pressure;Samples;Min_cycle;Max_cycle;Signal;HPM_P1;HPM_P2
2023/10/11 00:00:37;;;;;;;;;;;16.50;99.90;;;;;;4992232;28;19964;-76
2023/10/11 00:03:17;;;;;;;;;;;16.50;99.90;;;;;;4992965;28;19941;-76
2023/10/11 00:05:46;;;;;;;;;;;16.50;99.90;;;;;;4998806;28;19914;-76
2023/10/11 00:08:16;;;;;;;;;;;16.50;99.90;;;;;;4992748;28;19956;-75
2023/10/11 00:10:49;;;;;;;;;;;16.80;99.90;;;;;;4993128;28;19934;-76
2023/10/11 00:13:15;;;;;;;;;;;16.90;99.90;;;;;;4992334;28;19910;-76
2023/10/11 00:15:51;;;;;;;;;;;16.80;99.90;;;;;;4993102;28;19916;-76
2023/10/11 00:18:17;;;;;;;;;;;16.70;99.90;;;;;;4995288;28;19922;-76
2023/10/11 00:23:09;;;;;;;;;;;16.90;99.90;;;;;;5000598;28;19914;-76
2023/10/11 00:25:34;;;;;;;;;;;16.80;99.90;;;;;;4991879;28;19909;-76
2023/10/11 00:28:00;;;;;;;;;;;16.60;99.90;;;;;;4990644;28;20280;-76
2023/10/11 00:30:29;;;;;;;;;;;16.50;99.90;;;;;;4994363;28;19916;-75
2023/10/11 00:32:55;;;;;;;;;;;16.50;99.90;;;;;;4994457;28;20000;-75
2023/10/11 00:35:24;;;;;;;;;;;16.30;99.90;;;;;;4991843;28;20007;-76
2023/10/11 00:37:54;;;;;;;;;;;16.30;99.90;;;;;;4990764;28;19917;-76
2023/10/11 00:40:27;;;;;;;;;;;16.20;99.90;;;;;;4993291;28;19909;-76
2023/10/11 00:42:56;;;;;;;;;;;16.30;99.90;;;;;;4995170;28;19909;-76
2023/10/11 00:45:23;;;;;;;;;;;16.40;99.90;;;;;;4993613;28;20208;-76
2023/10/11 00:47:51;;;;;;;;;;;16.30;99.90;;;;;;4993992;28;20268;-76
2023/10/11 00:50:17;;;;;;;;;;;16.10;99.90;;;;;;4992763;28;20304;-76
2023/10/11 00:52:43;;;;;;;;;;;16.10;99.90;;;;;;4992542;28;19909;-76
2023/10/11 00:55:16;;;;;;;;;;;16.00;99.90;;;;;;4999912;28;20352;-76
2023/10/11 00:57:42;;;;;;;;;;;16.00;99.90;;;;;;4991377;28;19940;-75
2023/10/11 01:00:12;;;;;;;;;;;16.10;99.90;;;;;;4992676;28;20443;-74
2023/10/11 01:02:38;;;;;;;;;;;16.00;99.90;;;;;;4991732;28;19980;-76
2023/10/11 01:05:06;;;;;;;;;;;16.00;99.90;;;;;;4996670;28;20382;-76
2023/10/11 01:07:32;;;;;;;;;;;15.80;99.90;;;;;;4990737;28;19920;-76
2023/10/11 01:09:57;;;;;;;;;;;15.90;99.90;;;;;;4992957;28;19933;-76
2023/10/11 01:12:23;;;;;;;;;;;15.90;99.90;;;;;;4992394;28;20364;-75
2023/10/11 01:14:57;;;;;;;;;;;16.00;99.90;;;;;;4994592;28;20363;-75
2023/10/11 01:17:23;;;;;;;;;;;15.90;99.90;;;;;;4991279;28;20725;-76
2023/10/11 01:19:51;;;;;;;;;;;15.90;99.90;;;;;;4990047;28;19920;-76
2023/10/11 01:22:17;;;;;;;;;;;16.20;99.90;;;;;;4991715;28;19916;-75
2023/10/11 01:24:44;;;;;;;;;;;16.30;99.90;;;;;;4996368;28;19949;-76
2023/10/11 01:27:13;;;;;;;;;;;16.30;99.90;;;;;;4996409;28;19964;-76
2023/10/11 01:29:39;;;;;;;;;;;16.40;99.90;;;;;;4998380;28;19972;-76
2023/10/11 01:32:06;;;;;;;;;;;16.50;99.90;;;;;;5000336;28;20571;-76
2023/10/11 01:34:32;;;;;;;;;;;16.50;99.90;;;;;;4994460;28;19964;-75
2023/10/11 01:36:58;;;;;;;;;;;16.50;99.90;;;;;;4993134;28;20285;-75
2023/10/11 01:39:23;;;;;;;;;;;16.20;99.90;;;;;;4995011;28;19921;-76
2023/10/11 01:41:49;;;;;;;;;;;16.10;99.90;;;;;;4991987;28;19913;-76
2023/10/11 01:44:15;;;;;;;;;;;15.90;99.90;;;;;;4991022;28;19999;-76
2023/10/11 01:46:40;;;;;;;;;;;15.70;99.90;;;;;;4992367;28;19910;-76
2023/10/11 01:49:07;;;;;;;;;;;15.70;99.90;;;;;;4999377;28;19955;-76
2023/10/11 01:51:38;;;;;;;;;;;15.60;99.90;;;;;;4995416;28;20687;-76
2023/10/11 01:54:04;;;;;;;;;;;15.80;99.90;;;;;;4990556;28;20407;-75
2023/10/11 01:56:30;;;;;;;;;;;15.70;99.90;;;;;;4999079;28;19983;-76
2023/10/11 01:59:00;;;;;;;;;;;15.50;99.90;;;;;;4988396;28;19929;-76
2023/10/11 02:01:28;;;;;;;;;;;15.60;99.90;;;;;;4998975;28;19932;-76
2023/10/11 02:04:03;;;;;;;;;;;15.60;99.90;;;;;;4988673;28;19909;-75
2023/10/11 02:06:31;;;;;;;;;;;15.50;99.90;;;;;;4990090;28;19910;-76
2023/10/11 02:08:57;;;;;;;;;;;15.50;99.90;;;;;;4993415;28;20000;-75
2023/10/11 02:11:25;;;;;;;;;;;15.50;99.90;;;;;;4990206;28;19917;-76
2023/10/11 02:13:51;;;;;;;;;;;15.50;99.90;;;;;;4994462;28;19909;-75
2023/10/11 02:16:17;;;;;;;;;;;15.50;99.90;;;;;;4994535;28;19909;-76
2023/10/11 02:18:43;;;;;;;;;;;15.60;99.90;;;;;;4992494;28;19917;-76
2023/10/11 02:21:08;;;;;;;;;;;15.70;99.90;;;;;;4990254;28;19917;-74
2023/10/11 02:23:39;;;;;;;;;;;15.70;99.90;;;;;;4998258;28;19909;-76
2023/10/11 02:26:12;;;;;;;;;;;15.60;99.90;;;;;;4990227;28;19913;-76
2023/10/11 02:28:39;;;;;;;;;;;15.50;99.90;;;;;;4992486;28;19917;-76
2023/10/11 02:31:08;;;;;;;;;;;15.50;99.90;;;;;;4997310;28;19909;-76
2023/10/11 02:33:34;;;;;;;;;;;15.50;99.90;;;;;;4989640;28;19924;-75
2023/10/11 02:36:08;;;;;;;;;;;15.50;99.90;;;;;;4988871;28;20052;-76
2023/10/11 02:38:38;;;;;;;;;;;15.50;99.90;;;;;;4994916;28;20399;-75
2023/10/11 02:41:04;;;;;;;;;;;15.30;99.90;;;;;;4989726;28;20502;-76
2023/10/11 02:43:33;;;;;;;;;;;15.30;99.90;;;;;;4991476;28;20019;-76
2023/10/11 02:45:59;;;;;;;;;;;15.30;99.90;;;;;;4997631;28;19964;-76
2023/10/11 02:48:27;;;;;;;;;;;15.20;99.90;;;;;;4994077;28;19971;-76
2023/10/11 02:50:55;;;;;;;;;;;15.50;99.90;;;;;;4989327;28;20020;-76
2023/10/11 02:53:21;;;;;;;;;;;15.20;99.90;;;;;;4994847;28;19910;-75
2023/10/11 02:55:57;;;;;;;;;;;15.30;99.90;;;;;;4994669;28;19917;-76
2023/10/11 02:58:24;;;;;;;;;;;15.20;99.90;;;;;;4994477;28;19918;-76
2023/10/11 03:00:56;;;;;;;;;;;15.00;99.90;;;;;;4991358;28;20343;-76
2023/10/11 03:03:26;;;;;;;;;;;14.90;99.90;;;;;;4989496;28;19917;-77
2023/10/11 03:05:57;;;;;;;;;;;14.90;99.90;;;;;;4995063;28;19956;-77
2023/10/11 03:08:26;;;;;;;;;;;15.10;99.90;;;;;;4984708;28;20399;-77
2023/10/11 03:10:57;;;;;;;;;;;14.90;99.90;;;;;;4985206;28;19916;-77
2023/10/11 03:13:24;;;;;;;;;;;14.80;99.90;;;;;;4985230;28;19913;-76
2023/10/11 03:15:55;;;;;;;;;;;14.80;99.90;;;;;;4988474;28;19914;-75
2023/10/11 03:18:25;;;;;;;;;;;14.90;99.90;;;;;;4981428;28;20345;-76
2023/10/11 03:20:58;;;;;;;;;;;15.00;99.90;;;;;;4990185;28;19961;-77
2023/10/11 03:23:27;;;;;;;;;;;15.10;99.90;;;;;;4983843;28;20371;-77
2023/10/11 03:25:53;;;;;;;;;;;15.10;99.90;;;;;;4988474;28;20392;-76
2023/10/11 03:28:26;;;;;;;;;;;15.00;99.90;;;;;;4987711;28;19914;-76
2023/10/11 03:30:52;;;;;;;;;;;15.10;99.90;;;;;;4986048;28;19910;-77
2023/10/11 03:33:18;;;;;;;;;;;15.10;99.90;;;;;;4989743;28;19965;-75
2023/10/11 03:35:44;;;;;;;;;;;15.00;99.90;;;;;;4994801;28;19909;-76
2023/10/11 03:38:17;;;;;;;;;;;15.00;99.90;;;;;;4993194;28;20280;-76
2023/10/11 03:40:55;;;;;;;;;;;14.80;99.90;;;;;;4994291;28;19917;-77
2023/10/11 03:43:21;;;;;;;;;;;15.10;99.90;;;;;;4996969;28;20376;-76
2023/10/11 03:45:50;;;;;;;;;;;15.10;99.90;;;;;;4992816;28;20397;-76
2023/10/11 03:48:16;;;;;;;;;;;15.20;99.90;;;;;;4992812;28;19916;-77
2023/10/11 03:50:47;;;;;;;;;;;15.10;99.90;;;;;;4989450;28;19917;-76
2023/10/11 03:53:15;;;;;;;;;;;15.00;99.90;;;;;;4992725;28;19916;-77
2023/10/11 03:55:47;;;;;;;;;;;14.90;99.90;;;;;;4997065;28;19929;-76
2023/10/11 03:58:23;;;;;;;;;;;14.70;99.90;;;;;;4992417;28;20008;-76
2023/10/11 04:00:49;;;;;;;;;;;14.80;99.90;;;;;;4986679;28;20357;-76
2023/10/11 04:03:17;;;;;;;;;;;14.80;99.90;;;;;;4997485;28;19917;-76
2023/10/11 04:05:47;;;;;;;;;;;14.80;99.90;;;;;;4990777;28;19910;-78
2023/10/11 04:08:19;;;;;;;;;;;14.70;99.90;;;;;;4988741;28;19913;-77
2023/10/11 04:10:49;;;;;;;;;;;14.70;99.90;;;;;;4990615;28;19948;-77
2023/10/11 04:13:15;;;;;;;;;;;14.80;99.90;;;;;;4991918;28;20283;-76
2023/10/11 04:15:41;;;;;;;;;;;14.90;99.90;;;;;;4988414;28;19913;-76
2023/10/11 04:18:15;;;;;;;;;;;14.90;99.90;;;;;;4996087;28;20431;-75
2023/10/11 04:20:51;;;;;;;;;;;14.80;99.90;;;;;;4991124;28;19917;-76
2023/10/11 04:23:16;;;;;;;;;;;14.70;99.90;;;;;;4986610;28;19921;-76
2023/10/11 04:25:47;;;;;;;;;;;14.70;99.90;;;;;;4992936;28;19980;-76
2023/10/11 04:28:12;;;;;;;;;;;14.60;99.90;;;;;;4991596;28;19917;-77
2023/10/11 04:30:43;;;;;;;;;;;14.50;99.90;;;;;;4988774;28;19935;-77
2023/10/11 04:33:20;;;;;;;;;;;14.40;99.90;;;;;;4988823;28;19909;-77
2023/10/11 04:35:55;;;;;;;;;;;14.50;99.90;;;;;;4987940;28;19917;-75
2023/10/11 04:38:21;;;;;;;;;;;14.50;99.90;;;;;;4993543;28;20084;-77
2023/10/11 04:40:53;;;;;;;;;;;14.40;99.90;;;;;;4993780;28;20007;-77
2023/10/11 04:43:24;;;;;;;;;;;14.40;99.90;;;;;;4989530;28;19917;-73
2023/10/11 04:45:51;;;;;;;;;;;14.30;99.90;;;;;;4988642;28;19917;-75
2023/10/11 04:48:41;;;;;;;;;;;14.40;99.90;;;;;;4985455;28;20125;-76
2023/10/11 04:51:07;;;;;;;;;;;14.30;99.90;;;;;;4984555;28;19968;-76
2023/10/11 04:53:34;;;;;;;;;;;14.40;99.90;;;;;;4989764;28;19916;-74
2023/10/11 04:56:09;;;;;;;;;;;14.30;99.90;;;;;;4999838;28;20004;-75
2023/10/11 04:58:54;;;;;;;;;;;14.40;99.90;;;;;;4985950;28;20356;-76
2023/10/11 05:01:23;;;;;;;;;;;14.40;99.90;;;;;;4991616;28;19971;-74
2023/10/11 05:03:58;;;;;;;;;;;14.50;99.90;;;;;;4999040;28;20263;-74
2023/10/11 05:06:39;;;;;;;;;;;14.40;99.90;;;;;;5011967;28;19925;-75
2023/10/11 05:11:58;;;;;;;;;;;14.50;99.90;;;;;;4996833;28;19945;-75
2023/10/11 05:14:28;;;;;;;;;;;14.50;99.90;;;;;;4997286;28;19964;-75
2023/10/11 05:22:35;;;;;;;;;;;14.10;99.90;;;;;;5009062;28;19921;-76
2023/10/11 05:32:33;;;;;;;;;;;14.20;99.90;;;;;;5010980;28;19920;-74
2023/10/11 05:35:19;;;;;;;;;;;14.20;99.90;;;;;;5000111;28;19910;-76
2023/10/11 05:51:29;;;;;;;;;;;14.30;99.90;;;;;;4984040;28;19916;-75
2023/10/11 05:54:05;;;;;;;;;;;14.30;99.90;;;;;;4992164;28;19909;-74
2023/10/11 05:56:38;;;;;;;;;;;14.30;99.90;;;;;;4990758;28;19909;-75
2023/10/11 05:59:10;;;;;;;;;;;14.20;99.90;;;;;;4984437;28;19924;-75
2023/10/11 06:01:36;;;;;;;;;;;14.20;99.90;;;;;;4992377;28;19918;-75
2023/10/11 06:04:04;;;;;;;;;;;14.20;99.90;;;;;;4990392;28;20859;-76
2023/10/11 06:06:42;;;;;;;;;;;14.20;99.90;;;;;;4988643;28;19924;-75
2023/10/11 06:09:16;;;;;;;;;;;14.20;99.90;;;;;;4988299;28;19979;-76
2023/10/11 06:11:47;;;;;;;;;;;14.30;99.90;;;;;;4985889;28;19983;-76
2023/10/11 06:14:16;;;;;;;;;;;14.30;99.90;;;;;;4985489;28;20253;-75
2023/10/11 06:16:43;;;;;;;;;;;14.20;99.90;;;;;;4986644;28;19963;-75
2023/10/11 06:19:18;;;;;;;;;;;14.00;99.90;;;;;;4985403;28;19972;-75
2023/10/11 06:21:57;;;;;;;;;;;14.00;99.90;;;;;;4984407;28;19909;-77
2023/10/11 06:24:26;;;;;;;;;;;14.10;99.90;;;;;;4992621;28;19977;-75
2023/10/11 06:26:52;;;;;;;;;;;14.10;99.90;;;;;;4987549;28;20348;-75
2023/10/11 06:29:23;;;;;;;;;;;14.20;99.90;;;;;;4983043;28;19928;-76
2023/10/11 06:31:49;;;;;;;;;;;14.30;99.90;;;;;;4988805;28;20323;-75
2023/10/11 06:34:17;;;;;;;;;;;14.40;99.90;;;;;;4989375;28;19921;-75
2023/10/11 06:36:48;;;;;;;;;;;14.40;99.90;;;;;;4983588;28;20381;-75
2023/10/11 06:42:17;;;;;;;;;;;14.40;99.90;;;;;;4986648;28;20071;-75
2023/10/11 06:44:47;;;;;;;;;;;14.40;99.90;;;;;;4989155;28;19909;-75
2023/10/11 06:47:13;;;;;;;;;;;14.30;99.90;;;;;;4983093;28;19916;-75
2023/10/11 06:49:47;;;;;;;;;;;14.40;99.90;;;;;;4991520;28;19913;-75
2023/10/11 06:52:19;;;;;;;;;;;14.30;99.90;;;;;;4982941;28;19992;-74
2023/10/11 06:54:49;;;;;;;;;;;14.30;99.90;;;;;;4986271;28;20511;-74
2023/10/11 06:57:19;;;;;;;;;;;14.40;99.90;;;;;;4984952;28;19913;-77
2023/10/11 06:59:49;;;;;;;;;;;14.40;99.90;;;;;;4988235;28;19917;-76
2023/10/11 07:02:18;;;;;;;;;;;14.30;99.90;;;;;;4981190;28;19917;-75
2023/10/11 07:04:52;;;;;;;;;;;14.30;99.90;;;;;;4986812;28;19909;-75
2023/10/11 07:07:18;;;;;;;;;;;14.30;99.90;;;;;;4983591;28;19931;-75
2023/10/11 07:09:56;;;;;;;;;;;14.30;99.90;;;;;;4988718;28;20423;-75
2023/10/11 07:12:28;;;;;;;;;;;14.40;99.90;;;;;;4986117;28;20240;-76
2023/10/11 07:14:57;;;;;;;;;;;14.40;99.90;;;;;;4991485;28;19941;-76
2023/10/11 07:17:28;;;;;;;;;;;14.30;99.90;;;;;;4987203;28;19914;-76
2023/10/11 07:19:57;;;;;;;;;;;14.40;99.90;;;;;;4989014;28;19909;-77
2023/10/11 07:22:26;;;;;;;;;;;14.40;99.90;;;;;;4988352;28;19964;-77
2023/10/11 07:24:59;;;;;;;;;;;14.40;99.90;;;;;;4988267;28;20008;-77
2023/10/11 07:27:37;;;;;;;;;;;14.40;99.90;;;;;;4987964;28;19909;-76
2023/10/11 07:30:06;;;;;;;;;;;14.40;99.90;;;;;;4987998;28;19997;-76
2023/10/11 07:32:36;;;;;;;;;;;14.50;99.90;;;;;;4986140;28;19909;-78
2023/10/11 07:35:05;;;;;;;;;;;14.70;99.90;;;;;;4991031;28;19910;-76
2023/10/11 07:37:31;;;;;;;;;;;14.90;99.90;;;;;;4992684;28;19925;-79
2023/10/11 07:40:09;;;;;;;;;;;15.10;99.90;;;;;;4991605;28;20376;-78
2023/10/11 07:42:38;;;;;;;;;;;15.10;99.90;;;;;;4987162;28;20387;-76
2023/10/11 07:45:12;;;;;;;;;;;14.90;99.90;;;;;;4990157;28;19909;-76
2023/10/11 07:47:45;;;;;;;;;;;14.90;99.90;;;;;;4989053;28;20104;-76
2023/10/11 07:50:14;;;;;;;;;;;14.90;99.90;;;;;;4986994;28;19910;-77
2023/10/11 07:52:41;;;;;;;;;;;14.90;99.90;;;;;;4991985;28;19932;-79
2023/10/11 07:55:08;;;;;;;;;;;14.90;99.90;;;;;;4985518;28;19921;-78
2023/10/11 07:57:39;;;;;;;;;;;15.00;99.90;;;;;;4987818;28;19962;-77
2023/10/11 08:00:16;;;;;;;;;;;15.10;99.90;;;;;;4993297;28;19917;-79
2023/10/11 08:02:41;;;;;;;;;;;15.20;99.90;;;;;;4986915;28;19940;-78
2023/10/11 08:05:12;;;;;;;;;;;15.30;99.90;;;;;;4986163;28;20365;-75
2023/10/11 08:07:39;;;;;;;;;;;15.30;99.90;;;;;;4993039;28;19909;-77
2023/10/11 08:10:29;;;;;;;;;;;15.40;99.90;;;;;;4985730;28;19913;-79
2023/10/11 08:12:51;;;;;;;;;;;15.40;99.90;;;;;;4976691;28;20054;-77
2023/10/11 08:15:21;;;;;;;;;;;15.40;99.90;;;;;;4988001;28;20403;-78
2023/10/11 08:17:46;;;;;;;;;;;15.50;99.90;;;;;;4987225;28;19918;-78
2023/10/11 08:20:15;;;;;;;;;;;15.60;99.90;;;;;;4990190;28;19910;-79
2023/10/11 08:22:41;;;;;;;;;;;15.60;99.90;;;;;;4987421;28;20001;-77
2023/10/11 08:25:12;;;;;;;;;;;15.70;99.90;;;;;;4987141;28;20032;-78
2023/10/11 08:27:38;;;;;;;;;;;15.70;99.90;;;;;;4984847;28;20403;-77
2023/10/11 08:30:16;;;;;;;;;;;15.70;99.90;;;;;;4988190;28;20401;-77
2023/10/11 08:32:42;;;;;;;;;;;15.80;99.90;;;;;;4987954;28;19909;-77
2023/10/11 08:35:26;;;;;;;;;;;15.80;99.90;;;;;;4989837;28;19968;-77
2023/10/11 08:37:52;;;;;;;;;;;15.90;99.90;;;;;;4984378;28;19926;-77
2023/10/11 08:40:22;;;;;;;;;;;15.90;99.90;;;;;;4988673;28;19914;-77
2023/10/11 08:42:48;;;;;;;;;;;16.00;99.90;;;;;;4988682;28;19909;-75
2023/10/11 08:45:20;;;;;;;;;;;16.00;99.90;;;;;;4986880;28;19920;-78
2023/10/11 08:47:46;;;;;;;;;;;16.10;99.90;;;;;;4986053;28;20364;-75
2023/10/11 08:50:17;;;;;;;;;;;16.20;99.90;;;;;;4985796;28;19920;-75
2023/10/11 08:52:43;;;;;;;;;;;16.20;99.90;;;;;;4985593;28;20000;-76
2023/10/11 08:55:12;;;;;;;;;;;16.30;99.90;;;;;;4984093;28;20020;-76
2023/10/11 08:57:38;;;;;;;;;;;16.30;99.90;;;;;;4985530;28;20330;-78
2023/10/11 09:00:17;;;;;;;;;;;16.40;99.90;;;;;;4985773;28;19917;-76
2023/10/11 09:02:48;;;;;;;;;;;16.40;99.90;;;;;;4989304;28;20563;-78
2023/10/11 09:05:32;;;;;;;;;;;16.60;99.90;;;;;;4983523;28;20268;-77
2023/10/11 09:08:01;;;;;;;;;;;16.80;99.90;;;;;;4985860;28;19914;-77
2023/10/11 09:10:29;;;;;;;;;;;16.80;99.90;;;;;;4984953;28;20356;-77
2023/10/11 09:12:56;;;;;;;;;;;16.90;99.90;;;;;;4985863;28;19993;-77
2023/10/11 09:15:22;;;;;;;;;;;16.90;99.90;;;;;;4986728;28;19917;-76
2023/10/11 09:17:50;;;;;;;;;;;17.00;99.90;;;;;;4984982;28;19976;-77
2023/10/11 09:20:16;;;;;;;;;;;17.10;99.90;;;;;;4992960;28;19919;-77
2023/10/11 09:22:55;;;;;;;;;;;17.10;99.90;;;;;;4988755;28;19914;-78
2023/10/11 09:25:22;;;;;;;;;;;17.10;99.90;;;;;;4984724;28;19913;-76
2023/10/11 09:27:51;;;;;;;;;;;17.10;99.90;;;;;;4985849;28;19913;-76
2023/10/11 09:30:20;;;;;;;;;;;17.30;99.90;;;;;;4991162;28;19913;-77
2023/10/11 09:32:51;;;;;;;;;;;17.40;99.90;;;;;;4987246;28;19909;-77
2023/10/11 09:35:29;;;;;;;;;;;17.40;99.90;;;;;;4982714;28;19910;-76
2023/10/11 09:37:55;;;;;;;;;;;17.50;99.90;;;;;;4986000;28;19917;-76
2023/10/11 09:40:27;;;;;;;;;;;17.50;99.90;;;;;;4987211;28;19920;-75
2023/10/11 09:42:55;;;;;;;;;;;17.70;99.90;;;;;;4985641;28;19992;-76
2023/10/11 09:45:22;;;;;;;;;;;17.80;99.90;;;;;;4987720;28;20466;-78
2023/10/11 09:47:54;;;;;;;;;;;17.80;99.90;;;;;;4980700;28;19916;-77
2023/10/11 09:50:23;;;;;;;;;;;17.90;99.90;;;;;;4983537;28;19925;-75
2023/10/11 09:52:50;;;;;;;;;;;17.80;99.90;;;;;;4988143;28;19916;-76
2023/10/11 09:55:19;;;;;;;;;;;18.00;99.90;;;;;;4982722;28;19909;-77
2023/10/11 09:58:02;;;;;;;;;;;18.10;99.90;;;;;;4979748;28;19928;-75
2023/10/11 10:00:46;;;;;;;;;;;18.00;99.70;;;;;;4989300;28;20510;-80
2023/10/11 10:03:13;;;;;;;;;;;18.10;99.70;;;;;;4983747;28;19971;-76
2023/10/11 10:06:00;;;;;;;;;;;18.10;99.50;;;;;;4983710;28;19910;-75
2023/10/11 10:08:28;;;;;;;;;;;18.50;99.50;;;;;;4988082;28;20388;-77
2023/10/11 10:10:54;;;;;;;;;;;18.60;99.50;;;;;;4983597;28;20025;-76
2023/10/11 10:13:24;;;;;;;;;;;18.60;98.90;;;;;;4986986;28;20016;-76
2023/10/11 10:15:52;;;;;;;;;;;18.70;98.80;;;;;;4989167;28;19940;-76
2023/10/11 10:18:21;;;;;;;;;;;18.80;98.90;;;;;;4982008;28;19921;-76
2023/10/11 10:20:47;;;;;;;;;;;18.90;99.00;;;;;;4984709;28;19910;-78
2023/10/11 10:23:16;;;;;;;;;;;19.20;98.40;;;;;;4982237;28;19917;-77
2023/10/11 10:25:48;;;;;;;;;;;19.30;98.30;;;;;;4981087;28;20340;-76
2023/10/11 10:28:45;;;;;;;;;;;19.40;98.40;;;;;;4981009;28;19920;-77
2023/10/11 10:31:18;;;;;;;;;;;19.60;97.80;;;;;;4983023;28;20928;-76
2023/10/11 10:33:49;;;;;;;;;;;19.40;97.70;;;;;;4982435;28;20285;-76
2023/10/11 10:36:18;;;;;;;;;;;19.50;98.60;;;;;;4989439;28;20324;-78
2023/10/11 10:39:47;;;;;;;;;;;19.80;98.10;;;;;;4982595;28;19926;-77
2023/10/11 10:42:08;;;;;;;;;;;19.70;97.90;;;;;;4980811;28;19916;-77
2023/10/11 10:44:44;;;;;;;;;;;19.90;97.60;;;;;;4991897;28;20284;-77
2023/10/11 10:47:09;;;;;;;;;;;20.00;97.80;;;;;;4987459;28;20516;-76
2023/10/11 10:49:42;;;;;;;;;;;20.10;97.00;;;;;;4989406;28;19999;-77
2023/10/11 10:52:18;;;;;;;;;;;20.10;97.10;;;;;;4987229;28;19910;-77
2023/10/11 10:54:54;;;;;;;;;;;20.20;97.20;;;;;;4989270;28;20012;-76
2023/10/11 10:57:24;;;;;;;;;;;20.40;97.50;;;;;;4989413;28;20276;-76
2023/10/11 10:59:49;;;;;;;;;;;20.70;96.90;;;;;;4988902;28;19925;-76
2023/10/11 11:02:19;;;;;;;;;;;20.80;97.40;;;;;;4992522;28;19910;-76
2023/10/11 11:04:44;;;;;;;;;;;20.90;97.10;;;;;;4993394;28;19913;-76
2023/10/11 11:07:20;;;;;;;;;;;21.00;97.00;;;;;;4987136;28;19918;-77
2023/10/11 11:09:47;;;;;;;;;;;21.20;97.10;;;;;;4988419;28;20014;-77
2023/10/11 11:12:14;;;;;;;;;;;21.20;96.30;;;;;;4986987;28;19906;-75
2023/10/11 11:14:56;;;;;;;;;;;21.10;96.20;;;;;;4999319;28;19920;-77
2023/10/11 11:17:23;;;;;;;;;;;21.20;98.30;;;;;;4990284;28;19944;-77
2023/10/11 11:20:13;;;;;;;;;;;21.20;96.60;;;;;;4991039;28;19949;-79
2023/10/11 11:22:39;;;;;;;;;;;21.40;96.20;;;;;;4990875;28;20507;-77
2023/10/11 11:25:34;;;;;;;;;;;21.40;96.00;;;;;;4991220;28;20000;-77
2023/10/11 11:28:03;;;;;;;;;;;21.40;96.10;;;;;;4990498;28;19925;-78
2023/10/11 11:30:33;;;;;;;;;;;21.40;96.30;;;;;;4995154;28;19913;-77
2023/10/11 11:33:08;;;;;;;;;;;21.40;96.10;;;;;;4991777;28;19910;-76
2023/10/11 11:35:43;;;;;;;;;;;21.40;95.30;;;;;;4996017;28;19985;-77
2023/10/11 11:38:19;;;;;;;;;;;21.30;95.50;;;;;;5002252;28;19920;-77
2023/10/11 11:40:48;;;;;;;;;;;21.50;96.20;;;;;;4995095;28;19956;-77
2023/10/11 11:43:17;;;;;;;;;;;21.60;95.50;;;;;;4991973;28;19909;-76
2023/10/11 11:45:45;;;;;;;;;;;21.50;95.40;;;;;;4993900;28;19920;-79
2023/10/11 11:48:11;;;;;;;;;;;21.50;95.60;;;;;;4991986;28;19921;-77
2023/10/11 11:50:38;;;;;;;;;;;21.70;95.40;;;;;;4992094;28;19909;-77
2023/10/11 11:53:05;;;;;;;;;;;21.80;95.50;;;;;;4990164;28;19924;-77
2023/10/11 11:55:32;;;;;;;;;;;22.10;95.80;;;;;;4984572;28;20268;-76
2023/10/11 11:57:58;;;;;;;;;;;22.00;95.20;;;;;;4987041;28;20318;-75
2023/10/11 12:02:51;;;;;;;;;;;22.00;95.50;;;;;;4985764;28;19929;-77
2023/10/11 12:05:17;;;;;;;;;;;22.00;95.70;;;;;;4991287;28;19917;-75
2023/10/11 12:07:43;;;;;;;;;;;22.10;95.40;;;;;;4988672;28;20661;-76
2023/10/11 12:10:23;;;;;;;;;;;22.00;95.00;;;;;;4982127;28;19924;-75
2023/10/11 12:12:52;;;;;;;;;;;22.20;95.60;;;;;;4987837;28;19918;-76
2023/10/11 12:15:18;;;;;;;;;;;22.40;95.30;;;;;;4990236;28;19960;-76
2023/10/11 12:17:44;;;;;;;;;;;22.40;95.20;;;;;;4990912;28;19922;-75
2023/10/11 12:20:14;;;;;;;;;;;22.50;95.10;;;;;;4987030;28;19918;-75
2023/10/11 12:22:42;;;;;;;;;;;22.50;95.20;;;;;;4988410;28;19976;-78
2023/10/11 12:25:09;;;;;;;;;;;22.50;94.70;;;;;;4987705;28;19928;-78
2023/10/11 12:27:40;;;;;;;;;;;22.50;94.90;;;;;;4993302;28;19997;-76
2023/10/11 12:30:19;;;;;;;;;;;22.70;95.20;;;;;;4985080;28;19917;-77
2023/10/11 12:32:52;;;;;;;;;;;22.80;94.70;;;;;;4989372;28;19983;-75
2023/10/11 12:35:23;;;;;;;;;;;22.70;94.90;;;;;;4991318;28;20356;-75
2023/10/11 12:37:49;;;;;;;;;;;22.60;94.50;;;;;;4985689;28;19918;-74
2023/10/11 12:40:22;;;;;;;;;;;22.60;95.10;;;;;;4988103;28;19933;-75
2023/10/11 12:42:48;;;;;;;;;;;22.80;95.70;;;;;;4987555;28;19949;-76
2023/10/11 12:45:16;;;;;;;;;;;22.70;94.70;;;;;;4987322;28;19910;-75
2023/10/11 12:47:42;;;;;;;;;;;22.90;95.60;;;;;;4987476;28;20028;-75
2023/10/11 12:50:08;;;;;;;;;;;23.10;94.90;;;;;;4984513;28;19997;-75
2023/10/11 12:52:37;;;;;;;;;;;23.00;94.60;;;;;;4989818;28;19910;-79
2023/10/11 12:55:07;;;;;;;;;;;23.00;94.90;;;;;;4988956;28;19917;-77
2023/10/11 12:57:37;;;;;;;;;;;23.00;94.60;;;;;;4986175;28;19976;-76
2023/10/11 13:00:15;;;;;;;;;;;23.20;94.30;;;;;;4984926;28;20799;-76
2023/10/11 13:02:48;;;;;;;;;;;23.20;94.50;;;;;;4988699;28;20000;-75
2023/10/11 13:05:15;;;;;;;;;;;23.10;93.70;;;;;;4985286;28;19999;-76
2023/10/11 13:07:42;;;;;;;;;;;23.20;93.90;;;;;;4987389;28;19920;-77
2023/10/11 13:10:07;;;;;;;;;;;23.20;94.00;;;;;;4985934;28;20009;-76
2023/10/11 13:12:37;;;;;;;;;;;23.30;93.20;;;;;;4983611;28;20051;-80
2023/10/11 13:15:08;;;;;;;;;;;23.20;93.30;;;;;;4984765;28;20035;-76
2023/10/11 13:17:34;;;;;;;;;;;23.30;94.10;;;;;;4984062;28;19910;-78
2023/10/11 13:20:08;;;;;;;;;;;23.50;94.10;;;;;;4988144;28;19916;-78
2023/10/11 13:22:34;;;;;;;;;;;23.40;93.70;;;;;;4984091;28;19928;-78
2023/10/11 13:25:02;;;;;;;;;;;23.40;93.90;;;;;;4982953;28;19913;-78
2023/10/11 13:27:28;;;;;;;;;;;23.40;94.10;;;;;;4987932;28;20486;-76
2023/10/11 13:29:53;;;;;;;;;;;23.50;94.30;;;;;;4988586;28;19961;-78
2023/10/11 13:32:19;;;;;;;;;;;23.30;93.50;;;;;;4989607;28;19909;-77
2023/10/11 13:34:44;;;;;;;;;;;23.40;94.00;;;;;;4985036;28;19920;-76
2023/10/11 13:37:11;;;;;;;;;;;23.40;93.70;;;;;;4988014;28;19968;-77
2023/10/11 13:39:45;;;;;;;;;;;23.40;94.00;;;;;;4991725;28;19918;-76
2023/10/11 13:42:14;;;;;;;;;;;23.40;93.90;;;;;;4986678;28;20327;-76
2023/10/11 13:44:43;;;;;;;;;;;23.40;94.00;;;;;;4987750;28;19909;-77
2023/10/11 13:47:09;;;;;;;;;;;23.30;93.60;;;;;;4985148;28;19917;-76
2023/10/11 13:49:37;;;;;;;;;;;23.30;94.00;;;;;;4992785;28;20347;-76
2023/10/11 13:52:03;;;;;;;;;;;23.30;93.90;;;;;;4986223;28;20007;-76
2023/10/11 13:54:32;;;;;;;;;;;23.40;94.10;;;;;;4986923;28;20000;-77
2023/10/11 13:57:20;;;;;;;;;;;23.50;94.60;;;;;;4991989;28;19920;-78
2023/10/11 13:59:46;;;;;;;;;;;23.50;95.00;;;;;;4985934;28;19949;-76
2023/10/11 14:10:01;;;;;;;;;;;23.70;95.10;;;;;;4991250;28;20420;-77
2023/10/11 14:12:34;;;;;;;;;;;23.70;95.10;;;;;;4985081;28;19909;-77
2023/10/11 14:14:59;;;;;;;;;;;24.00;95.20;;;;;;4991223;28;20272;-80
2023/10/11 14:17:25;;;;;;;;;;;23.90;95.00;;;;;;4986871;28;19912;-76
2023/10/11 14:19:52;;;;;;;;;;;23.80;95.20;;;;;;4985560;28;20404;-77
2023/10/11 14:22:18;;;;;;;;;;;23.90;95.50;;;;;;4987167;28;20394;-77
2023/10/11 14:24:44;;;;;;;;;;;24.10;95.50;;;;;;4984801;28;19913;-81
2023/10/11 14:27:09;;;;;;;;;;;24.00;95.30;;;;;;4987342;28;19914;-78
2023/10/11 14:29:37;;;;;;;;;;;23.90;95.70;;;;;;4987185;28;19926;-77
2023/10/11 14:32:02;;;;;;;;;;;24.00;95.50;;;;;;4988469;28;19913;-75
2023/10/11 14:34:30;;;;;;;;;;;24.00;95.70;;;;;;4987695;28;20008;-75
2023/10/11 14:36:56;;;;;;;;;;;24.10;95.40;;;;;;4985193;28;20046;-75
2023/10/11 14:39:22;;;;;;;;;;;23.90;95.50;;;;;;4985408;28;20021;-76
2023/10/11 14:41:50;;;;;;;;;;;23.90;95.50;;;;;;4988995;28;19910;-76
2023/10/11 14:44:16;;;;;;;;;;;23.90;95.80;;;;;;4987799;28;19914;-75
2023/10/11 14:46:41;;;;;;;;;;;23.90;95.70;;;;;;4985730;28;20826;-77
2023/10/11 14:49:07;;;;;;;;;;;23.80;95.50;;;;;;4985269;28;19953;-75
2023/10/11 14:51:37;;;;;;;;;;;23.80;96.10;;;;;;4985821;28;19925;-75
2023/10/11 14:54:03;;;;;;;;;;;23.90;96.20;;;;;;4986041;28;19916;-78
2023/10/11 14:56:30;;;;;;;;;;;23.70;96.30;;;;;;4989994;28;19910;-77
2023/10/11 14:58:58;;;;;;;;;;;23.60;96.60;;;;;;4986287;28;19918;-76
2023/10/11 15:01:25;;;;;;;;;;;23.40;97.00;;;;;;4985919;28;20009;-76
2023/10/11 15:03:50;;;;;;;;;;;23.40;97.80;;;;;;4987586;28;19916;-75
2023/10/11 15:06:19;;;;;;;;;;;23.50;96.90;;;;;;4984461;28;19910;-76
2023/10/11 15:08:45;;;;;;;;;;;23.50;97.70;;;;;;4985667;28;19910;-77
2023/10/11 15:11:12;;;;;;;;;;;23.50;97.00;;;;;;4984866;28;19988;-75
2023/10/11 15:13:38;;;;;;;;;;;23.60;96.80;;;;;;4982171;28;20399;-77
2023/10/11 15:16:04;;;;;;;;;;;23.60;97.40;;;;;;4988720;28;19916;-75